Time;durP1;ratioP1;P1;durP2;ratioP2;P2;SDS_P1;SDS_P2;PMS_P1;PMS_P2;Temp;Humidity;BMP_temperature;BMP_pressure;BME280_temperature;BME280_humidity;BME280_pressure;Samples;Min_cycle;Max_cycle;Signal;HPM_P1;HPM_P2
2022/08/27 00:00:13;;;;;;;21.13;9.43;;;18.10;99.90;;;;;;5034679;28;20186;-67
2022/08/27 00:02:39;;;;;;;25.97;10.37;;;18.10;99.90;;;;;;5034195;28;20436;-66
2022/08/27 00:05:05;;;;;;;15.90;8.53;;;18.10;99.90;;;;;;5034369;28;20491;-66
2022/08/27 00:07:31;;;;;;;21.53;10.33;;;18.20;99.90;;;;;;5034404;28;20564;-66
2022/08/27 00:09:56;;;;;;;17.67;9.73;;;18.20;99.90;;;;;;5034645;28;20512;-66
2022/08/27 00:12:22;;;;;;;15.90;7.73;;;18.20;99.90;;;;;;5033944;28;20194;-66
2022/08/27 00:14:48;;;;;;;17.53;9.20;;;18.20;99.90;;;;;;5034617;28;20174;-66
2022/08/27 00:17:14;;;;;;;16.93;8.70;;;18.20;99.90;;;;;;5034573;28;20257;-66
2022/08/27 00:19:40;;;;;;;16.53;8.07;;;18.20;99.90;;;;;;5034340;28;20182;-66
2022/08/27 00:22:07;;;;;;;21.40;9.23;;;18.20;99.90;;;;;;5034118;28;20413;-66
2022/08/27 00:24:34;;;;;;;18.10;9.87;;;18.20;99.90;;;;;;5034538;28;20198;-66
2022/08/27 00:27:00;;;;;;;19.67;9.47;;;18.20;99.90;;;;;;5034265;28;20457;-66
2022/08/27 00:29:26;;;;;;;16.63;9.30;;;18.20;99.90;;;;;;5034287;28;20754;-66
2022/08/27 00:31:52;;;;;;;16.80;8.57;;;18.20;99.90;;;;;;5032855;28;20171;-66
2022/08/27 00:34:19;;;;;;;14.13;7.90;;;18.20;99.90;;;;;;5034154;28;21208;-66
2022/08/27 00:36:44;;;;;;;17.47;8.93;;;18.20;99.90;;;;;;5034056;28;20421;-66
2022/08/27 00:39:11;;;;;;;20.33;10.73;;;18.20;99.90;;;;;;5033531;28;20501;-66
2022/08/27 00:41:38;;;;;;;19.37;8.90;;;18.20;99.90;;;;;;5033421;28;20229;-67
2022/08/27 00:44:05;;;;;;;18.50;10.17;;;18.20;99.90;;;;;;5033878;28;20456;-67
2022/08/27 00:46:56;;;;;;;15.80;9.47;;;18.10;99.90;;;;;;5035512;28;20465;-66
2022/08/27 00:49:42;;;;;;;22.67;10.10;;;18.10;99.90;;;;;;5042721;28;20781;-67
2022/08/27 00:52:22;;;;;;;16.43;8.90;;;18.10;99.90;;;;;;5056207;28;20408;-66
2022/08/27 00:54:51;;;;;;;28.27;10.80;;;18.10;99.90;;;;;;5056577;28;20435;-67
2022/08/27 00:57:17;;;;;;;24.03;11.50;;;18.10;99.90;;;;;;5056496;28;20941;-66
2022/08/27 00:59:43;;;;;;;24.30;10.70;;;18.10;99.90;;;;;;5056176;28;20458;-67
2022/08/27 01:02:17;;;;;;;18.47;9.67;;;18.00;99.90;;;;;;5055486;28;20404;-67
2022/08/27 01:04:51;;;;;;;23.33;10.90;;;18.00;99.90;;;;;;5054492;28;20184;-67
2022/08/27 01:07:17;;;;;;;20.30;11.00;;;18.10;99.90;;;;;;5054326;28;20456;-67
2022/08/27 01:09:45;;;;;;;23.60;11.40;;;18.10;99.90;;;;;;5053841;28;20404;-67
2022/08/27 01:12:11;;;;;;;28.30;13.30;;;18.10;99.90;;;;;;5052935;28;20443;-67
2022/08/27 01:14:38;;;;;;;36.93;12.03;;;18.10;99.90;;;;;;5053045;28;20400;-67
2022/08/27 01:17:06;;;;;;;28.30;13.23;;;18.10;99.90;;;;;;5053285;28;20178;-67
2022/08/27 01:19:38;;;;;;;23.43;13.23;;;18.10;99.90;;;;;;5053069;28;20412;-67
2022/08/27 01:22:23;;;;;;;25.40;12.23;;;18.10;99.90;;;;;;5052622;28;20424;-67
2022/08/27 01:24:53;;;;;;;19.37;11.00;;;18.20;99.90;;;;;;5052920;28;20411;-67
2022/08/27 01:27:23;;;;;;;25.20;12.37;;;18.20;99.90;;;;;;5052912;28;20452;-67
2022/08/27 01:29:49;;;;;;;35.13;14.77;;;18.20;99.90;;;;;;5052905;28;20474;-68
2022/08/27 01:32:19;;;;;;;25.27;12.50;;;18.20;99.90;;;;;;5051508;28;20452;-67
2022/08/27 01:34:45;;;;;;;23.03;11.23;;;18.20;99.90;;;;;;5052754;28;20698;-67
2022/08/27 01:37:12;;;;;;;23.67;12.10;;;18.20;99.90;;;;;;5053033;28;20716;-66
2022/08/27 01:39:38;;;;;;;26.73;13.10;;;18.20;99.90;;;;;;5052900;28;20408;-67
2022/08/27 01:42:19;;;;;;;25.17;12.30;;;18.20;99.90;;;;;;5052234;28;20406;-67
2022/08/27 01:44:51;;;;;;;27.00;12.47;;;18.20;99.90;;;;;;5052554;28;20927;-67
2022/08/27 01:47:19;;;;;;;32.23;14.17;;;18.10;99.90;;;;;;5052683;28;21062;-67
2022/08/27 01:49:46;;;;;;;29.10;13.40;;;18.20;99.90;;;;;;5042730;28;20414;-67
2022/08/27 01:52:13;;;;;;;28.77;11.93;;;18.10;99.90;;;;;;5031696;28;20410;-67
2022/08/27 01:54:39;;;;;;;21.83;12.13;;;18.20;99.90;;;;;;5032715;28;20459;-66
2022/08/27 01:57:05;;;;;;;25.60;13.77;;;18.20;99.90;;;;;;5032636;28;20984;-66
2022/08/27 01:59:32;;;;;;;19.63;10.87;;;18.20;99.90;;;;;;5032618;28;20413;-67
2022/08/27 02:01:59;;;;;;;26.50;12.60;;;18.20;99.90;;;;;;5032276;28;20170;-67
2022/08/27 02:04:25;;;;;;;22.83;11.93;;;18.30;99.90;;;;;;5032713;28;20415;-66
2022/08/27 02:06:50;;;;;;;21.73;12.50;;;18.30;99.90;;;;;;5032607;28;20452;-67
2022/08/27 02:09:16;;;;;;;18.77;11.17;;;18.30;99.90;;;;;;5032314;28;20175;-67
2022/08/27 02:11:42;;;;;;;22.90;12.60;;;18.30;99.90;;;;;;5031924;28;20669;-67
2022/08/27 02:14:07;;;;;;;19.90;11.43;;;18.30;99.90;;;;;;5032333;28;20681;-67
2022/08/27 02:16:33;;;;;;;25.53;13.83;;;18.30;99.90;;;;;;5032458;28;20249;-67
2022/08/27 02:18:59;;;;;;;26.33;12.67;;;18.30;99.90;;;;;;5032227;28;20265;-67
2022/08/27 02:21:25;;;;;;;29.03;13.87;;;18.30;99.90;;;;;;5031864;28;20171;-66
2022/08/27 02:23:51;;;;;;;26.93;14.67;;;18.20;99.90;;;;;;5031959;28;20413;-66
2022/08/27 02:26:16;;;;;;;24.10;12.80;;;18.20;99.90;;;;;;5032055;28;20238;-66
2022/08/27 02:28:42;;;;;;;24.57;13.27;;;18.10;99.90;;;;;;5032142;28;20175;-66
2022/08/27 02:31:08;;;;;;;29.23;15.80;;;18.00;99.90;;;;;;5031617;28;20226;-66
2022/08/27 02:33:34;;;;;;;30.67;14.80;;;18.00;99.90;;;;;;5030987;28;20285;-66
2022/08/27 02:36:00;;;;;;;32.20;13.93;;;17.80;99.90;;;;;;5032156;28;20185;-66
2022/08/27 02:38:25;;;;;;;37.97;15.53;;;17.80;99.90;;;;;;5031976;28;20425;-66
2022/08/27 02:40:51;;;;;;;40.63;15.33;;;17.80;99.90;;;;;;5031756;28;20174;-66
2022/08/27 02:43:17;;;;;;;32.10;13.40;;;17.70;99.90;;;;;;5031641;28;20253;-65
2022/08/27 02:45:43;;;;;;;31.63;15.87;;;17.70;99.90;;;;;;5031883;28;20398;-65
2022/08/27 02:48:08;;;;;;;26.53;15.70;;;17.70;99.90;;;;;;5032021;28;20198;-65
2022/08/27 02:50:35;;;;;;;37.13;14.00;;;17.60;99.90;;;;;;5031944;28;20178;-66
2022/08/27 02:53:03;;;;;;;35.43;15.93;;;17.60;99.90;;;;;;5031603;28;20163;-66
2022/08/27 02:55:29;;;;;;;30.80;15.17;;;17.50;99.90;;;;;;5031796;28;20414;-65
2022/08/27 02:57:55;;;;;;;38.90;15.70;;;17.50;99.90;;;;;;5031694;28;20441;-65
2022/08/27 03:00:23;;;;;;;35.20;16.33;;;17.50;99.90;;;;;;5031587;28;20405;-65
2022/08/27 03:02:49;;;;;;;32.67;15.80;;;17.50;99.90;;;;;;5031900;28;20800;-65
2022/08/27 03:05:16;;;;;;;39.90;19.30;;;17.50;99.90;;;;;;5035566;28;20439;-64
2022/08/27 03:07:42;;;;;;;42.23;19.07;;;17.60;99.90;;;;;;5035674;28;20211;-65
2022/08/27 03:10:10;;;;;;;35.83;15.97;;;17.50;99.90;;;;;;5035705;28;20409;-66
2022/08/27 03:12:36;;;;;;;34.57;17.30;;;17.50;99.90;;;;;;5035198;28;20190;-66
2022/08/27 03:15:08;;;;;;;40.20;15.97;;;17.50;99.90;;;;;;5035766;28;20504;-65
2022/08/27 03:20:18;;;;;;;30.37;14.20;;;17.50;99.90;;;;;;5035725;28;20455;-65
2022/08/27 03:22:44;;;;;;;39.30;16.80;;;17.40;99.90;;;;;;5034298;28;20812;-65
2022/08/27 03:25:11;;;;;;;37.40;16.07;;;17.40;99.90;;;;;;5035826;28;20201;-65
2022/08/27 03:27:37;;;;;;;34.43;15.90;;;17.40;99.90;;;;;;5035392;28;20460;-65
2022/08/27 03:30:06;;;;;;;41.27;16.17;;;17.40;99.90;;;;;;5035256;28;20420;-65
2022/08/27 03:32:33;;;;;;;30.13;15.83;;;17.40;99.90;;;;;;5033677;28;20402;-66
2022/08/27 03:34:59;;;;;;;36.03;15.93;;;17.30;99.90;;;;;;5035331;28;20424;-65
2022/08/27 03:37:25;;;;;;;36.87;16.50;;;17.40;99.90;;;;;;5035360;28;20417;-65
2022/08/27 03:39:50;;;;;;;40.90;17.43;;;17.30;99.90;;;;;;5035301;28;20643;-66
2022/08/27 03:42:16;;;;;;;39.93;18.33;;;17.30;99.90;;;;;;5034693;28;20504;-66
2022/08/27 03:44:42;;;;;;;38.20;17.53;;;17.30;99.90;;;;;;5035190;28;20178;-66
2022/08/27 03:47:07;;;;;;;35.10;16.50;;;17.30;99.90;;;;;;5035218;28;20206;-66
2022/08/27 03:49:33;;;;;;;41.70;16.63;;;17.20;99.90;;;;;;5035034;28;20174;-65
2022/08/27 03:51:59;;;;;;;40.37;17.83;;;17.20;99.90;;;;;;5034796;28;20170;-66
2022/08/27 03:54:24;;;;;;;43.50;18.60;;;17.20;99.90;;;;;;5034905;28;20566;-66
2022/08/27 03:56:50;;;;;;;32.20;15.93;;;17.20;99.90;;;;;;5034761;28;20237;-66
2022/08/27 03:59:16;;;;;;;41.30;18.10;;;17.10;99.90;;;;;;5034813;28;20205;-66
2022/08/27 04:01:43;;;;;;;49.03;20.07;;;17.10;99.90;;;;;;5034304;28;20417;-66
2022/08/27 04:04:09;;;;;;;50.17;21.47;;;17.10;99.90;;;;;;5034462;28;20401;-67
2022/08/27 04:06:35;;;;;;;46.80;22.03;;;17.10;99.90;;;;;;5034404;28;20551;-66
2022/08/27 04:09:02;;;;;;;50.37;23.07;;;17.10;99.90;;;;;;5034595;28;20543;-65
2022/08/27 04:11:28;;;;;;;58.23;24.50;;;17.10;99.90;;;;;;5034195;28;20171;-66
2022/08/27 04:13:54;;;;;;;56.07;23.03;;;17.10;99.90;;;;;;5034186;28;20436;-66
2022/08/27 04:16:20;;;;;;;61.83;25.20;;;17.10;99.90;;;;;;5033874;28;20213;-65
2022/08/27 04:18:46;;;;;;;53.03;25.13;;;17.10;99.90;;;;;;5034502;28;20405;-65
2022/08/27 04:21:14;;;;;;;48.00;25.87;;;17.10;99.90;;;;;;5033852;28;20985;-65
2022/08/27 04:23:41;;;;;;;48.33;23.90;;;17.10;99.90;;;;;;5034243;28;20170;-65
2022/08/27 04:26:08;;;;;;;58.97;27.53;;;17.20;99.90;;;;;;5034066;28;20991;-65
2022/08/27 04:28:34;;;;;;;62.10;26.90;;;17.20;99.90;;;;;;5034274;28;20432;-65
2022/08/27 04:31:02;;;;;;;55.30;27.27;;;17.20;99.90;;;;;;5033763;28;20413;-65
2022/08/27 04:33:30;;;;;;;65.27;30.53;;;17.20;99.90;;;;;;5032808;28;20905;-64
2022/08/27 04:36:04;;;;;;;75.13;34.33;;;17.20;99.90;;;;;;5033868;28;20914;-65
2022/08/27 04:38:31;;;;;;;89.53;33.90;;;17.10;99.90;;;;;;5033973;28;20431;-65
2022/08/27 04:43:41;;;;;;;112.77;39.13;;;17.20;99.90;;;;;;5034083;28;20448;-65
2022/08/27 04:46:07;;;;;;;86.63;37.07;;;17.20;99.90;;;;;;5033550;28;20476;-65
2022/08/27 04:48:34;;;;;;;83.73;36.87;;;17.20;99.90;;;;;;5033617;28;20201;-64
2022/08/27 04:50:59;;;;;;;85.67;35.43;;;17.20;99.90;;;;;;5033393;28;20866;-64
2022/08/27 04:53:25;;;;;;;76.53;35.00;;;17.20;99.90;;;;;;5033731;28;20505;-64
2022/08/27 04:55:55;;;;;;;75.07;35.00;;;17.20;99.90;;;;;;5033808;28;20511;-64
2022/08/27 04:58:22;;;;;;;91.47;36.50;;;17.20;99.90;;;;;;5033811;28;20178;-64
2022/08/27 05:00:50;;;;;;;81.23;35.50;;;17.20;99.90;;;;;;5033391;28;20428;-64
2022/08/27 05:03:18;;;;;;;80.90;33.93;;;17.20;99.90;;;;;;5033226;28;20765;-64
2022/08/27 05:05:46;;;;;;;87.87;35.77;;;17.20;99.90;;;;;;5033699;28;20550;-64
2022/08/27 05:08:12;;;;;;;81.30;34.60;;;17.20;99.90;;;;;;5033548;28;20459;-64
2022/08/27 05:10:43;;;;;;;83.43;34.80;;;17.20;99.90;;;;;;5033211;28;20409;-64
2022/08/27 05:13:09;;;;;;;107.07;38.70;;;17.20;99.90;;;;;;5032991;28;20436;-64
2022/08/27 05:15:35;;;;;;;74.77;35.27;;;17.20;99.90;;;;;;5033236;28;20409;-64
2022/08/27 05:18:01;;;;;;;78.40;33.97;;;17.20;99.90;;;;;;5033385;28;20455;-64
2022/08/27 05:20:28;;;;;;;90.27;38.10;;;17.30;99.90;;;;;;5033129;28;20171;-64
2022/08/27 05:22:54;;;;;;;98.70;35.87;;;17.30;99.90;;;;;;5032578;28;20416;-64
2022/08/27 05:25:20;;;;;;;83.90;35.00;;;17.30;99.90;;;;;;5032845;28;20414;-65
2022/08/27 05:27:46;;;;;;;79.60;33.73;;;17.30;99.90;;;;;;5032794;28;20272;-64
2022/08/27 05:30:12;;;;;;;90.47;36.00;;;17.30;99.90;;;;;;5032974;28;20468;-64
2022/08/27 05:32:38;;;;;;;98.10;37.70;;;17.30;99.90;;;;;;5031188;28;20175;-64
2022/08/27 05:35:05;;;;;;;82.17;34.17;;;17.30;99.90;;;;;;5032862;28;20539;-64
2022/08/27 05:37:32;;;;;;;77.23;31.67;;;17.40;99.90;;;;;;5032784;28;20501;-64
2022/08/27 05:39:59;;;;;;;67.93;32.97;;;17.40;99.90;;;;;;5032654;28;20406;-64
2022/08/27 05:42:25;;;;;;;81.47;36.37;;;17.40;99.90;;;;;;5032232;28;20448;-64
2022/08/27 05:44:51;;;;;;;89.33;36.87;;;17.40;99.90;;;;;;5032762;28;20412;-64
2022/08/27 05:47:16;;;;;;;97.70;35.17;;;17.40;99.90;;;;;;5032321;28;20476;-64
2022/08/27 05:49:42;;;;;;;89.33;32.07;;;17.40;99.90;;;;;;5032422;28;20186;-64
2022/08/27 05:52:10;;;;;;;80.37;33.00;;;17.40;99.90;;;;;;5032214;28;20261;-64
2022/08/27 05:54:36;;;;;;;83.63;35.93;;;17.40;99.90;;;;;;5032331;28;20166;-64
2022/08/27 05:57:02;;;;;;;89.50;34.57;;;17.50;99.90;;;;;;5032242;28;20425;-64
2022/08/27 06:02:13;;;;;;;87.90;35.23;;;17.50;99.90;;;;;;5031460;28;20408;-64
2022/08/27 06:04:39;;;;;;;89.40;34.60;;;17.50;99.90;;;;;;5032324;28;20420;-64
2022/08/27 06:07:08;;;;;;;83.47;33.20;;;17.60;99.90;;;;;;5032022;28;20210;-64
2022/08/27 06:09:33;;;;;;;80.83;33.53;;;17.60;99.90;;;;;;5032363;28;20174;-64
2022/08/27 06:12:00;;;;;;;67.77;31.17;;;17.70;99.90;;;;;;5031594;28;20559;-64
2022/08/27 06:14:26;;;;;;;61.50;29.57;;;17.70;99.90;;;;;;5032428;28;20635;-65
2022/08/27 06:16:52;;;;;;;83.13;32.00;;;17.70;99.90;;;;;;5032388;28;20416;-64
2022/08/27 06:19:19;;;;;;;72.30;31.00;;;17.80;99.90;;;;;;5032528;28;20417;-65
2022/08/27 06:21:44;;;;;;;74.83;30.70;;;17.80;99.90;;;;;;5031572;28;20221;-65
2022/08/27 06:24:11;;;;;;;91.30;31.10;;;17.80;99.90;;;;;;5032261;28;20417;-65
2022/08/27 06:26:39;;;;;;;54.77;28.47;;;17.90;99.90;;;;;;5032191;28;20293;-65
2022/08/27 06:29:06;;;;;;;61.10;28.87;;;17.90;99.90;;;;;;5032483;28;20423;-65
2022/08/27 06:31:34;;;;;;;77.77;29.33;;;17.90;99.90;;;;;;5031713;28;20417;-65
2022/08/27 06:34:02;;;;;;;66.37;28.13;;;17.90;99.90;;;;;;5031911;28;20449;-65
2022/08/27 06:36:29;;;;;;;74.13;27.73;;;18.00;99.90;;;;;;5032026;28;20449;-65
2022/08/27 06:38:56;;;;;;;80.13;30.40;;;18.00;99.90;;;;;;5034791;28;20886;-66
2022/08/27 06:41:25;;;;;;;50.73;26.40;;;18.00;99.90;;;;;;5035887;28;20474;-65
2022/08/27 06:43:51;;;;;;;60.23;27.33;;;18.10;99.90;;;;;;5036493;28;20552;-65
2022/08/27 06:46:20;;;;;;;62.57;28.63;;;18.10;99.90;;;;;;5035982;28;20470;-65
2022/08/27 06:48:48;;;;;;;51.20;26.07;;;18.10;99.90;;;;;;5036047;28;20412;-66
2022/08/27 06:51:17;;;;;;;48.60;23.87;;;18.10;99.90;;;;;;5035495;28;20893;-65
2022/08/27 06:53:45;;;;;;;57.00;25.27;;;18.10;99.90;;;;;;5036171;28;20508;-65
2022/08/27 06:56:12;;;;;;;55.23;25.50;;;18.10;99.90;;;;;;5035947;28;20417;-65
2022/08/27 06:58:39;;;;;;;50.47;24.30;;;18.20;99.90;;;;;;5035795;28;20439;-66
2022/08/27 07:01:16;;;;;;;50.43;26.70;;;18.20;99.90;;;;;;5035576;28;20794;-66
2022/08/27 07:03:42;;;;;;;53.03;24.97;;;18.20;99.90;;;;;;5035900;28;20535;-66
2022/08/27 07:06:09;;;;;;;65.13;27.10;;;18.20;99.90;;;;;;5035588;28;20457;-66
2022/08/27 07:08:35;;;;;;;57.77;25.20;;;18.20;99.90;;;;;;5035564;28;20420;-65
2022/08/27 07:11:01;;;;;;;55.23;24.57;;;18.20;99.90;;;;;;5035274;28;20402;-66
2022/08/27 07:13:28;;;;;;;54.43;24.57;;;18.30;99.90;;;;;;5035520;28;20222;-66
2022/08/27 07:15:55;;;;;;;49.83;24.13;;;18.30;99.90;;;;;;5035777;28;20320;-65
2022/08/27 07:18:21;;;;;;;48.47;24.00;;;18.30;99.90;;;;;;5034367;28;20512;-65
2022/08/27 07:20:48;;;;;;;45.13;22.43;;;18.30;99.90;;;;;;5035443;28;20421;-65
2022/08/27 07:23:13;;;;;;;48.50;24.00;;;18.30;99.90;;;;;;5034859;28;20444;-65
2022/08/27 07:25:40;;;;;;;61.33;24.87;;;18.30;99.90;;;;;;5035286;28;20874;-66
2022/08/27 07:28:06;;;;;;;48.10;21.27;;;18.30;99.90;;;;;;5035248;28;20623;-66
2022/08/27 07:30:32;;;;;;;42.80;20.67;;;18.30;99.90;;;;;;5035268;28;20420;-66
2022/08/27 07:32:58;;;;;;;39.27;22.13;;;18.30;99.90;;;;;;5033690;28;20425;-66
2022/08/27 07:35:23;;;;;;;56.60;22.73;;;18.40;99.90;;;;;;5035038;28;20245;-66
2022/08/27 07:37:49;;;;;;;41.23;20.87;;;18.40;99.90;;;;;;5034778;28;20179;-66
2022/08/27 07:40:15;;;;;;;44.70;21.17;;;18.40;99.90;;;;;;5035128;28;20214;-66
2022/08/27 07:45:27;;;;;;;36.90;18.30;;;18.60;99.90;;;;;;5035190;28;21038;-65
2022/08/27 07:47:53;;;;;;;37.97;18.80;;;18.70;99.90;;;;;;5034920;28;20824;-65
2022/08/27 07:50:22;;;;;;;43.30;19.17;;;18.80;99.90;;;;;;5034631;28;20433;-65
2022/08/27 07:52:51;;;;;;;33.60;18.70;;;18.80;99.90;;;;;;5034473;28;20198;-66
2022/08/27 07:55:17;;;;;;;35.07;16.83;;;18.90;99.90;;;;;;5035037;28;20489;-65
2022/08/27 07:57:44;;;;;;;31.70;17.90;;;18.90;99.90;;;;;;5034758;28;20427;-66
2022/08/27 08:00:10;;;;;;;43.00;20.93;;;18.90;99.90;;;;;;5034868;28;20420;-66
2022/08/27 08:02:37;;;;;;;37.50;18.60;;;18.80;99.90;;;;;;5034457;28;20416;-66
2022/08/27 08:05:04;;;;;;;41.67;19.47;;;18.80;99.90;;;;;;5034770;28;20421;-66
2022/08/27 08:07:30;;;;;;;36.83;18.30;;;18.80;99.90;;;;;;5034558;28;20466;-66
2022/08/27 08:09:57;;;;;;;46.33;21.70;;;18.80;99.90;;;;;;5034857;28;20425;-65
2022/08/27 08:12:22;;;;;;;39.73;21.17;;;18.80;99.90;;;;;;5034127;28;20194;-65
2022/08/27 08:14:48;;;;;;;39.17;19.37;;;18.70;99.90;;;;;;5034831;28;20500;-65
2022/08/27 08:17:14;;;;;;;39.30;20.73;;;18.70;99.90;;;;;;5034573;28;20201;-65
2022/08/27 08:19:40;;;;;;;31.00;18.70;;;18.70;99.90;;;;;;5034082;28;20182;-66
2022/08/27 08:22:06;;;;;;;39.37;19.17;;;18.70;99.90;;;;;;5032827;28;20194;-66
2022/08/27 08:24:33;;;;;;;39.30;20.03;;;18.70;99.90;;;;;;5034138;28;20182;-66
2022/08/27 08:26:58;;;;;;;40.40;18.93;;;18.70;99.90;;;;;;5034328;28;20549;-65
2022/08/27 08:29:24;;;;;;;38.83;18.00;;;18.70;99.90;;;;;;5034117;28;20504;-65
2022/08/27 08:31:49;;;;;;;51.23;20.03;;;18.70;99.90;;;;;;5032688;28;20193;-65
2022/08/27 08:34:15;;;;;;;38.70;20.43;;;18.70;99.90;;;;;;5034159;28;20174;-65
2022/08/27 08:36:41;;;;;;;31.60;17.60;;;18.70;99.90;;;;;;5034275;28;20535;-65
2022/08/27 08:39:06;;;;;;;35.27;18.87;;;18.80;99.90;;;;;;5033891;28;20654;-65
2022/08/27 08:41:38;;;;;;;39.63;19.33;;;18.80;99.90;;;;;;5033718;28;20178;-65
2022/08/27 08:44:24;;;;;;;41.43;20.97;;;18.90;99.90;;;;;;5034886;28;20182;-65
2022/08/27 08:47:02;;;;;;;47.33;18.03;;;19.00;99.90;;;;;;5035900;28;20502;-65
2022/08/27 08:49:45;;;;;;;46.10;20.60;;;19.10;99.90;;;;;;5035755;28;20437;-65
2022/08/27 08:52:42;;;;;;;54.87;22.03;;;19.20;99.90;;;;;;5035913;28;20409;-65
2022/08/27 08:55:13;;;;;;;46.33;19.90;;;19.20;99.90;;;;;;5037081;28;20416;-65
2022/08/27 08:57:50;;;;;;;46.77;19.17;;;19.30;99.90;;;;;;5037535;28;20417;-65
2022/08/27 09:00:16;;;;;;;41.40;21.57;;;19.40;99.90;;;;;;5035473;28;20401;-68
2022/08/27 09:02:49;;;;;;;41.83;18.73;;;19.40;99.90;;;;;;5033038;28;20439;-65
2022/08/27 09:05:15;;;;;;;36.27;19.30;;;19.50;99.90;;;;;;5033914;28;20174;-66
2022/08/27 09:07:49;;;;;;;39.37;22.10;;;19.50;99.90;;;;;;5033991;28;20460;-68
2022/08/27 09:11:06;;;;;;;42.00;20.37;;;19.60;99.90;;;;;;5033689;28;20863;-67
2022/08/27 09:13:40;;;;;;;37.17;19.50;;;19.70;99.90;;;;;;5010892;28;20441;-67
2022/08/27 09:16:07;;;;;;;40.23;19.00;;;19.70;99.90;;;;;;5011112;28;20996;-67
2022/08/27 09:18:36;;;;;;;33.97;17.63;;;19.70;99.90;;;;;;5024755;28;20421;-67
2022/08/27 09:21:09;;;;;;;37.87;20.17;;;19.70;99.90;;;;;;5033106;28;21066;-67
2022/08/27 09:24:18;;;;;;;36.70;20.23;;;19.80;99.90;;;;;;5033016;28;20504;-68
2022/08/27 09:26:44;;;;;;;38.23;18.90;;;19.90;99.90;;;;;;5030516;28;20473;-67
2022/08/27 09:29:19;;;;;;;39.37;18.77;;;19.90;99.90;;;;;;5033424;28;21274;-67
2022/08/27 09:31:54;;;;;;;31.43;15.70;;;19.80;99.90;;;;;;5031987;28;20170;-68
2022/08/27 09:34:20;;;;;;;41.20;18.90;;;19.90;99.90;;;;;;5033161;28;20794;-67
2022/08/27 09:37:06;;;;;;;42.13;19.40;;;19.90;99.90;;;;;;5033138;28;20795;-67
2022/08/27 09:39:40;;;;;;;38.97;17.07;;;20.10;99.90;;;;;;5032811;28;20424;-68
2022/08/27 09:42:06;;;;;;;30.53;17.43;;;20.10;99.90;;;;;;5032418;28;20413;-67
2022/08/27 09:44:44;;;;;;;33.10;16.57;;;20.20;99.90;;;;;;5032703;28;20456;-68
2022/08/27 09:47:13;;;;;;;35.03;16.90;;;20.20;99.90;;;;;;5032721;28;21016;-67
2022/08/27 09:49:40;;;;;;;33.33;15.80;;;20.10;99.90;;;;;;5041756;28;20412;-68
2022/08/27 09:52:06;;;;;;;35.50;18.03;;;20.00;99.90;;;;;;5052222;28;20461;-67
2022/08/27 09:54:35;;;;;;;28.37;14.27;;;19.90;99.90;;;;;;5052304;28;20416;-67
2022/08/27 09:57:00;;;;;;;33.17;16.30;;;19.90;99.90;;;;;;5040391;28;20428;-68
2022/08/27 09:59:42;;;;;;;36.23;16.60;;;19.80;99.90;;;;;;5032497;28;20421;-68
2022/08/27 10:02:18;;;;;;;36.07;17.20;;;19.90;99.90;;;;;;5032201;28;20570;-67
2022/08/27 10:05:00;;;;;;;32.37;17.50;;;19.90;99.90;;;;;;5032614;28;20424;-67
2022/08/27 10:07:52;;;;;;;30.30;17.23;;;19.90;99.90;;;;;;5032478;28;20492;-68
2022/08/27 10:10:58;;;;;;;35.77;17.27;;;19.90;99.90;;;;;;5032129;28;20411;-68
2022/08/27 10:13:38;;;;;;;39.13;18.07;;;20.00;99.90;;;;;;5030595;28;20445;-67
2022/08/27 10:16:35;;;;;;;31.13;16.50;;;19.90;99.90;;;;;;5032496;28;20862;-68
2022/08/27 10:19:24;;;;;;;32.60;15.03;;;19.80;99.90;;;;;;5032201;28;20520;-67
2022/08/27 10:21:57;;;;;;;30.10;16.57;;;19.80;99.90;;;;;;5031669;28;20421;-67
2022/08/27 10:24:34;;;;;;;33.57;14.67;;;19.90;99.90;;;;;;5032214;28;20512;-67
2022/08/27 10:27:20;;;;;;;28.33;14.03;;;19.90;99.90;;;;;;5032034;28;20463;-68
2022/08/27 10:29:46;;;;;;;31.30;13.80;;;19.90;99.90;;;;;;5032198;28;20751;-67
2022/08/27 10:32:35;;;;;;;26.20;14.00;;;20.00;99.90;;;;;;5031060;28;20481;-67
2022/08/27 10:35:10;;;;;;;28.30;13.80;;;19.90;99.90;;;;;;5032180;28;20178;-68
2022/08/27 10:38:02;;;;;;;39.03;14.90;;;19.80;99.90;;;;;;5032174;28;20412;-67
2022/08/27 10:40:50;;;;;;;27.77;14.63;;;19.90;99.90;;;;;;5031857;28;20425;-68
2022/08/27 10:43:16;;;;;;;34.70;14.10;;;19.90;99.90;;;;;;5031767;28;20415;-68
2022/08/27 10:46:04;;;;;;;30.80;16.20;;;19.90;99.90;;;;;;5031944;28;20413;-67
2022/08/27 10:48:39;;;;;;;33.37;15.37;;;19.80;99.90;;;;;;5028939;28;20201;-68
2022/08/27 10:51:30;;;;;;;24.50;14.67;;;19.60;99.90;;;;;;5011963;28;20417;-67
2022/08/27 10:54:13;;;;;;;28.90;14.97;;;19.50;99.90;;;;;;5012531;28;20414;-67
2022/08/27 10:56:43;;;;;;;31.10;14.27;;;19.30;99.90;;;;;;5021078;28;20413;-67
2022/08/27 10:59:30;;;;;;;27.80;13.87;;;19.20;99.90;;;;;;5032111;28;20448;-67
2022/08/27 11:02:15;;;;;;;22.80;12.10;;;19.20;99.90;;;;;;5031848;28;20417;-68
2022/08/27 11:04:48;;;;;;;24.43;13.17;;;19.10;99.90;;;;;;5032287;28;20413;-68
2022/08/27 11:07:20;;;;;;;24.70;13.10;;;19.10;99.90;;;;;;5032037;28;20476;-67
2022/08/27 11:09:52;;;;;;;21.23;12.57;;;19.10;99.90;;;;;;5031915;28;20409;-68
2022/08/27 11:12:25;;;;;;;28.27;13.07;;;19.20;99.90;;;;;;5031274;28;20444;-67
2022/08/27 11:15:16;;;;;;;23.30;12.30;;;19.20;99.90;;;;;;5031754;28;20413;-67
2022/08/27 11:17:59;;;;;;;24.50;12.20;;;19.20;99.90;;;;;;5031866;28;20393;-67
2022/08/27 11:20:30;;;;;;;23.90;10.87;;;19.20;99.90;;;;;;5031737;28;20416;-68
2022/08/27 11:23:18;;;;;;;23.50;11.87;;;19.20;99.90;;;;;;5031514;28;20550;-67
2022/08/27 11:25:52;;;;;;;24.50;10.77;;;19.20;99.90;;;;;;5035061;28;20902;-68
2022/08/27 11:28:21;;;;;;;20.30;10.30;;;19.20;99.90;;;;;;5035382;28;20416;-67
2022/08/27 11:30:47;;;;;;;18.43;10.40;;;19.20;99.90;;;;;;5035125;28;20424;-67
2022/08/27 11:33:37;;;;;;;22.60;11.13;;;19.30;99.90;;;;;;5034282;28;20409;-68
2022/08/27 11:36:27;;;;;;;31.53;10.53;;;19.30;99.90;;;;;;5035218;28;20681;-68
2022/08/27 11:39:12;;;;;;;25.70;11.50;;;19.30;99.90;;;;;;5035381;28;20436;-67
2022/08/27 11:41:46;;;;;;;25.43;11.40;;;19.30;99.90;;;;;;5034280;28;20421;-67
2022/08/27 11:44:14;;;;;;;25.10;11.37;;;19.30;99.90;;;;;;5034379;28;20452;-67
2022/08/27 11:46:57;;;;;;;22.90;12.43;;;19.30;99.90;;;;;;5034220;28;20840;-67
2022/08/27 11:49:34;;;;;;;25.47;10.50;;;19.40;99.90;;;;;;5034115;28;20417;-66
2022/08/27 11:52:04;;;;;;;17.27;10.30;;;19.40;99.90;;;;;;5033741;28;20409;-66
2022/08/27 11:54:45;;;;;;;21.67;10.63;;;19.50;99.90;;;;;;5034138;28;20414;-67
2022/08/27 11:57:29;;;;;;;16.20;10.83;;;19.50;99.90;;;;;;5034016;28;20429;-67
2022/08/27 11:59:55;;;;;;;17.77;9.17;;;19.50;99.90;;;;;;5033736;28;20428;-67
2022/08/27 12:02:21;;;;;;;18.93;10.97;;;19.60;99.90;;;;;;5033457;28;20890;-67
2022/08/27 12:04:47;;;;;;;20.63;11.47;;;19.70;99.90;;;;;;5034071;28;20504;-67
2022/08/27 12:07:13;;;;;;;19.73;10.20;;;19.70;99.90;;;;;;5033710;28;20667;-67
2022/08/27 12:09:51;;;;;;;23.80;10.87;;;19.80;99.90;;;;;;5034080;28;20500;-67
2022/08/27 12:12:34;;;;;;;23.67;11.00;;;19.80;99.90;;;;;;5033513;28;20193;-67
2022/08/27 12:15:26;;;;;;;21.80;11.47;;;20.00;99.90;;;;;;5033829;28;20443;-67
2022/08/27 12:18:30;;;;;;;19.67;10.40;;;20.00;99.90;;;;;;5033816;28;20761;-67
2022/08/27 12:21:34;;;;;;;17.83;11.20;;;20.10;99.90;;;;;;5033509;28;20409;-66
2022/08/27 12:24:06;;;;;;;20.90;10.40;;;20.10;99.90;;;;;;4992007;28;20435;-66
2022/08/27 12:26:38;;;;;;;18.80;9.47;;;20.10;99.90;;;;;;4991868;28;20836;-66
2022/08/27 12:29:30;;;;;;;25.00;12.40;;;20.00;99.90;;;;;;5014752;28;20429;-66
2022/08/27 12:32:47;;;;;;;23.20;9.60;;;20.10;99.90;;;;;;5032530;28;20417;-66
2022/08/27 12:35:36;;;;;;;23.57;9.97;;;20.20;99.90;;;;;;5010425;28;20421;-66
2022/08/27 12:38:18;;;;;;;19.70;10.63;;;20.20;99.90;;;;;;5033581;28;20448;-66
2022/08/27 12:40:47;;;;;;;16.37;9.63;;;20.20;99.90;;;;;;5033779;28;20866;-65
2022/08/27 12:43:28;;;;;;;22.07;10.07;;;20.30;99.90;;;;;;5033728;28;20413;-66
2022/08/27 12:46:12;;;;;;;20.00;10.73;;;20.30;99.90;;;;;;5033276;28;20833;-65
2022/08/27 12:48:49;;;;;;;18.00;9.97;;;20.30;99.90;;;;;;5033191;28;20413;-66
2022/08/27 12:51:17;;;;;;;17.97;9.50;;;20.30;99.90;;;;;;5032608;28;20471;-66
2022/08/27 12:54:06;;;;;;;15.60;9.13;;;20.40;99.90;;;;;;5033133;28;20420;-66
2022/08/27 12:56:48;;;;;;;19.67;9.60;;;20.40;99.90;;;;;;5032608;28;20421;-66